createdAt,value
2019-02-05T00:00:56.400Z,101531.00
2019-02-05T00:03:24.309Z,101538.00
2019-02-05T00:05:53.540Z,101539.00
2019-02-05T00:08:21.604Z,101539.00
2019-02-05T00:10:49.650Z,101532.00
2019-02-05T00:13:21.053Z,101538.00
2019-02-05T00:15:49.286Z,101536.00
2019-02-05T00:18:17.368Z,101533.00
2019-02-05T00:20:46.057Z,101536.00
2019-02-05T00:23:14.266Z,101537.00
2019-02-05T00:25:42.148Z,101538.00
2019-02-05T00:28:11.865Z,101548.00
2019-02-05T00:30:39.802Z,101549.00
2019-02-05T00:33:07.732Z,101544.00
2019-02-05T00:35:35.744Z,101536.00
2019-02-05T00:38:04.191Z,101532.00
2019-02-05T00:40:32.048Z,101529.00
2019-02-05T00:43:00.015Z,101534.00
2019-02-05T00:45:28.641Z,101536.00
2019-02-05T00:47:56.608Z,101531.00
2019-02-05T00:50:25.525Z,101533.00
2019-02-05T00:52:56.504Z,101536.00
2019-02-05T00:55:24.538Z,101524.00
2019-02-05T00:57:52.568Z,101533.00
2019-02-05T01:00:24.982Z,101532.00
2019-02-05T01:02:54.079Z,101523.00
2019-02-05T01:05:22.326Z,101519.00
2019-02-05T01:07:50.254Z,101516.00
2019-02-05T01:10:18.334Z,101513.00
2019-02-05T01:12:46.677Z,101512.00
2019-02-05T01:15:16.073Z,101506.00
2019-02-05T01:17:44.224Z,101513.00
2019-02-05T01:20:15.480Z,101508.00
2019-02-05T01:22:43.440Z,101513.00
2019-02-05T01:25:11.654Z,101514.00
2019-02-05T01:27:39.516Z,101524.00
2019-02-05T01:30:11.707Z,101534.00
2019-02-05T01:32:39.668Z,101526.00
2019-02-05T01:35:07.725Z,101521.00
2019-02-05T01:37:38.399Z,101523.00
2019-02-05T01:40:07.771Z,101516.00
2019-02-05T01:42:35.811Z,101516.00
2019-02-05T01:45:05.612Z,101523.00
2019-02-05T01:47:33.510Z,101509.00
2019-02-05T01:50:01.467Z,101517.00
2019-02-05T01:52:29.338Z,101514.00
2019-02-05T01:54:57.298Z,101512.00
2019-02-05T01:57:25.345Z,101516.00
2019-02-05T01:59:54.162Z,101499.00
2019-02-05T02:02:22.874Z,101505.00
2019-02-05T02:04:50.834Z,101497.00
2019-02-05T02:07:18.746Z,101495.00
2019-02-05T02:09:46.706Z,101491.00
2019-02-05T02:12:14.662Z,101487.00
2019-02-05T02:14:42.569Z,101481.00
2019-02-05T02:17:10.736Z,101486.00
2019-02-05T02:19:38.648Z,101485.00
2019-02-05T02:22:06.604Z,101477.00
2019-02-05T02:24:34.563Z,101470.00
2019-02-05T02:27:02.617Z,101475.00
2019-02-05T02:29:30.472Z,101467.00
2019-02-05T02:31:58.526Z,101468.00
2019-02-05T02:34:26.710Z,101466.00
2019-02-05T02:37:04.421Z,101481.00
2019-02-05T02:39:32.304Z,101488.00
2019-02-05T02:42:00.247Z,101491.00
2019-02-05T02:44:28.085Z,101499.00
2019-02-05T02:46:55.940Z,101497.00
2019-02-05T02:49:24.166Z,101494.00
2019-02-05T02:51:52.056Z,101476.00
2019-02-05T02:54:19.955Z,101506.00
2019-02-05T02:56:47.860Z,101512.00
2019-02-05T02:59:15.828Z,101506.00
2019-02-05T03:01:43.829Z,101495.00
2019-02-05T03:04:11.714Z,101496.00
2019-02-05T03:06:39.924Z,101504.00
2019-02-05T03:09:09.489Z,101494.00
2019-02-05T03:11:37.713Z,101496.00
2019-02-05T03:14:05.774Z,101507.00
2019-02-05T03:16:33.737Z,101502.00
2019-02-05T03:19:01.634Z,101506.00
2019-02-05T03:21:29.574Z,101504.00
2019-02-05T03:23:58.627Z,101508.00
2019-02-05T03:26:26.491Z,101495.00
2019-02-05T03:28:54.427Z,101499.00
2019-02-05T03:31:22.370Z,101503.00
2019-02-05T03:33:50.250Z,101504.00
2019-02-05T03:36:18.086Z,101505.00
2019-02-05T03:38:45.986Z,101498.00
2019-02-05T03:41:13.919Z,101502.00
2019-02-05T03:43:42.026Z,101496.00
2019-02-05T03:46:11.880Z,101493.00
2019-02-05T03:48:40.833Z,101494.00
2019-02-05T03:51:57.283Z,101494.00
2019-02-05T03:55:19.664Z,101488.00
2019-02-05T03:58:46.431Z,101490.00
2019-02-05T04:02:49.094Z,101492.00
2019-02-05T04:06:10.056Z,101481.00
2019-02-05T04:09:21.907Z,101493.00
2019-02-05T04:13:07.798Z,101492.00
2019-02-05T04:16:30.276Z,101498.00
2019-02-05T04:19:45.898Z,101493.00
2019-02-05T04:23:06.448Z,101486.00
2019-02-05T04:26:29.048Z,101492.00
2019-02-05T04:29:45.395Z,101490.00
2019-02-05T04:33:14.006Z,101497.00
2019-02-05T04:36:32.516Z,101507.00
2019-02-05T04:40:15.337Z,101499.00
2019-02-05T04:43:32.565Z,101500.00
2019-02-05T04:47:07.816Z,101506.00
2019-02-05T04:50:22.786Z,101498.00
2019-02-05T04:53:37.890Z,101499.00
2019-02-05T04:57:06.285Z,101495.00
2019-02-05T05:00:37.927Z,101506.00
2019-02-05T05:04:19.051Z,101508.00
2019-02-05T05:07:26.313Z,101512.00
2019-02-05T05:09:56.738Z,101512.00
2019-02-05T05:12:26.579Z,101507.00
2019-02-05T05:14:54.959Z,101513.00
2019-02-05T05:17:22.863Z,101514.00
2019-02-05T05:19:50.835Z,101515.00
2019-02-05T05:22:18.788Z,101512.00
2019-02-05T05:24:47.056Z,101509.00
2019-02-05T05:27:19.233Z,101525.00
2019-02-05T05:29:47.955Z,101515.00
2019-02-05T05:32:16.899Z,101512.00
2019-02-05T05:34:44.771Z,101516.00
2019-02-05T05:37:11.266Z,101522.00
2019-02-05T05:39:39.243Z,101515.00
2019-02-05T05:42:07.195Z,101530.00
2019-02-05T05:44:35.163Z,101519.00
2019-02-05T05:47:03.519Z,101522.00
2019-02-05T05:49:31.373Z,101522.00
2019-02-05T05:51:59.279Z,101525.00
2019-02-05T05:54:27.306Z,101518.00
2019-02-05T05:56:56.425Z,101516.00
2019-02-05T05:59:24.369Z,101535.00
2019-02-05T06:01:52.297Z,101529.00
2019-02-05T06:04:20.569Z,101541.00
2019-02-05T06:06:48.540Z,101539.00
2019-02-05T06:09:16.485Z,101539.00
2019-02-05T06:11:44.423Z,101543.00
2019-02-05T06:14:12.337Z,101549.00
2019-02-05T06:16:40.365Z,101548.00
2019-02-05T06:19:08.266Z,101558.00
2019-02-05T06:21:36.183Z,101553.00
2019-02-05T06:24:05.279Z,101541.00
2019-02-05T06:26:35.609Z,101347.00
2019-02-05T06:29:03.765Z,101555.00
2019-02-05T06:31:31.627Z,101561.00
2019-02-05T06:33:59.541Z,101551.00
2019-02-05T06:36:27.499Z,101551.00
2019-02-05T06:38:55.419Z,101556.00
2019-02-05T06:41:23.459Z,101556.00
2019-02-05T06:43:51.498Z,101559.00
2019-02-05T06:46:20.261Z,101565.00
2019-02-05T06:48:48.183Z,101556.00
2019-02-05T06:51:16.212Z,101560.00
2019-02-05T06:53:44.118Z,101543.00
2019-02-05T06:56:12.084Z,101556.00
2019-02-05T06:58:46.522Z,101564.00
2019-02-05T07:01:10.114Z,101564.00
2019-02-05T07:03:38.047Z,101566.00
2019-02-05T07:06:05.956Z,101571.00
2019-02-05T07:08:33.937Z,101563.00
2019-02-05T07:11:04.487Z,101561.00
2019-02-05T07:13:32.584Z,101569.00
2019-02-05T07:16:00.761Z,101579.00
2019-02-05T07:18:28.614Z,101581.00
2019-02-05T07:20:56.484Z,101592.00
2019-02-05T07:23:24.407Z,101581.00
2019-02-05T07:25:52.348Z,101591.00
2019-02-05T07:28:20.536Z,101597.00
2019-02-05T07:30:48.504Z,101607.00
2019-02-05T07:33:16.890Z,101587.00
2019-02-05T07:35:44.784Z,101599.00
2019-02-05T07:38:12.626Z,101602.00
2019-02-05T07:40:40.614Z,101600.00
2019-02-05T07:43:08.784Z,101602.00
2019-02-05T07:45:37.768Z,101614.00
2019-02-05T07:48:05.633Z,101615.00
2019-02-05T07:50:33.832Z,101618.00
2019-02-05T07:53:01.953Z,101623.00
2019-02-05T07:55:29.883Z,101625.00
2019-02-05T07:57:57.782Z,101635.00
2019-02-05T08:00:28.352Z,101632.00
2019-02-05T08:02:56.251Z,101641.00
2019-02-05T08:05:27.873Z,101637.00
2019-02-05T08:07:56.100Z,101636.00
2019-02-05T08:10:24.090Z,101643.00
2019-02-05T08:12:52.436Z,101646.00
2019-02-05T08:15:30.078Z,101632.00
2019-02-05T08:17:57.909Z,101658.00
2019-02-05T08:20:25.841Z,101649.00
2019-02-05T08:22:53.698Z,101649.00
2019-02-05T08:25:21.600Z,101638.00
2019-02-05T08:27:49.925Z,101651.00
2019-02-05T08:30:26.477Z,101650.00
2019-02-05T08:32:54.351Z,101645.00
2019-02-05T08:35:22.272Z,101650.00
2019-02-05T08:37:50.212Z,101649.00
2019-02-05T08:40:18.932Z,101655.00
2019-02-05T08:42:46.922Z,101657.00
2019-02-05T08:45:20.537Z,101648.00
2019-02-05T08:47:48.816Z,101667.00
2019-02-05T08:50:19.861Z,101653.00
2019-02-05T08:52:47.774Z,101655.00
2019-02-05T08:55:17.750Z,101663.00
2019-02-05T08:57:49.384Z,101663.00
2019-02-05T09:00:33.016Z,101651.00
2019-02-05T09:03:01.152Z,101657.00
2019-02-05T09:05:29.066Z,101656.00
2019-02-05T09:07:57.234Z,101655.00
2019-02-05T09:10:34.878Z,101642.00
2019-02-05T09:13:03.447Z,101657.00
2019-02-05T09:15:31.779Z,101647.00
2019-02-05T09:17:59.897Z,101657.00
2019-02-05T09:20:27.991Z,101657.00
2019-02-05T09:22:55.902Z,101661.00
2019-02-05T09:25:24.007Z,101670.00
2019-02-05T09:27:51.912Z,101671.00
2019-02-05T09:30:23.020Z,101668.00
2019-02-05T09:32:53.650Z,101675.00
2019-02-05T09:35:21.753Z,101676.00
2019-02-05T09:37:57.888Z,101679.00
2019-02-05T09:40:29.107Z,101676.00
2019-02-05T09:43:09.295Z,101675.00
2019-02-05T09:45:57.081Z,101688.00
2019-02-05T09:48:37.454Z,101689.00
2019-02-05T09:51:24.947Z,101680.00
2019-02-05T09:54:09.379Z,101689.00
2019-02-05T09:56:50.775Z,101686.00
2019-02-05T09:59:18.717Z,101684.00
2019-02-05T10:02:00.155Z,101482.00
2019-02-05T10:04:47.620Z,101358.00
2019-02-05T10:07:15.789Z,101686.00
2019-02-05T10:10:04.251Z,101518.00
2019-02-05T10:12:32.218Z,101701.00
2019-02-05T10:15:00.348Z,101705.00
2019-02-05T10:17:28.475Z,101713.00
2019-02-05T10:20:21.413Z,101529.00
2019-02-05T10:22:49.621Z,101715.00
2019-02-05T10:25:17.776Z,101718.00
2019-02-05T10:27:46.674Z,101721.00
2019-02-05T10:30:44.526Z,101722.00
2019-02-05T10:33:25.280Z,101631.00
2019-02-05T10:36:13.093Z,101520.00
2019-02-05T10:38:41.114Z,101709.00
2019-02-05T10:41:28.754Z,101524.00
2019-02-05T10:43:56.683Z,101719.00
2019-02-05T10:46:24.594Z,101708.00
2019-02-05T10:48:52.566Z,101723.00
2019-02-05T10:51:41.915Z,101720.00
2019-02-05T10:54:22.580Z,101711.00
2019-02-05T10:56:50.549Z,101713.00
2019-02-05T10:59:18.417Z,101724.00
2019-02-05T11:01:46.511Z,101716.00
2019-02-05T11:04:14.714Z,101733.00
2019-02-05T11:06:42.720Z,101711.00
2019-02-05T11:09:11.983Z,101715.00
2019-02-05T11:11:52.932Z,101713.00
2019-02-05T11:14:40.444Z,101565.00
2019-02-05T11:17:20.759Z,101568.00
2019-02-05T11:20:11.598Z,101492.00
2019-02-05T11:22:51.986Z,101631.00
2019-02-05T11:25:39.459Z,101689.00
2019-02-05T11:28:07.341Z,101694.00
2019-02-05T11:30:54.801Z,101694.00
2019-02-05T11:33:22.736Z,101693.00
2019-02-05T11:36:03.343Z,101740.00
2019-02-05T11:38:51.391Z,101470.00
2019-02-05T11:41:53.459Z,101678.00
2019-02-05T11:44:40.969Z,101788.00
2019-02-05T11:47:21.382Z,101679.00
2019-02-05T11:50:09.922Z,101566.00
2019-02-05T11:52:50.943Z,101579.00
2019-02-05T11:55:38.581Z,101517.00
2019-02-05T11:58:18.957Z,101319.00
2019-02-05T12:01:19.580Z,101385.00
2019-02-05T12:04:00.166Z,101677.00
2019-02-05T12:06:47.530Z,101455.00
2019-02-05T12:09:28.489Z,101686.00
2019-02-05T12:12:16.167Z,101441.00
2019-02-05T12:14:56.851Z,101501.00
2019-02-05T12:17:44.551Z,101682.00
2019-02-05T12:20:13.339Z,101681.00
2019-02-05T12:22:41.493Z,101678.00
2019-02-05T12:25:29.213Z,101673.00
2019-02-05T12:28:10.143Z,101452.00
2019-02-05T12:30:57.935Z,101675.00
2019-02-05T12:33:50.486Z,101439.00
2019-02-05T12:36:38.051Z,101665.00
2019-02-05T12:39:18.969Z,101782.00
2019-02-05T12:42:06.582Z,101670.00
2019-02-05T12:44:46.856Z,101600.00
2019-02-05T12:47:34.611Z,101536.00
2019-02-05T12:50:16.442Z,101430.00
2019-02-05T12:52:44.420Z,101663.00
2019-02-05T12:55:13.825Z,101669.00
2019-02-05T12:57:55.075Z,101786.00
2019-02-05T13:00:36.302Z,101668.00
2019-02-05T13:03:18.542Z,101665.00
2019-02-05T13:06:06.505Z,101662.00
2019-02-05T13:08:34.484Z,101654.00
2019-02-05T13:11:22.126Z,101482.00
2019-02-05T13:14:03.390Z,101416.00
2019-02-05T13:16:50.950Z,101653.00
2019-02-05T13:19:18.938Z,101647.00
2019-02-05T13:22:28.088Z,101426.00
2019-02-05T13:25:13.755Z,101639.00
2019-02-05T13:28:01.386Z,101643.00
2019-02-05T13:30:30.926Z,101637.00
2019-02-05T13:33:18.545Z,101656.00
2019-02-05T13:35:59.524Z,101648.00
2019-02-05T13:38:47.091Z,101436.00
2019-02-05T13:41:29.157Z,101654.00
2019-02-05T13:43:57.315Z,101647.00
2019-02-05T13:46:39.967Z,101644.00
2019-02-05T13:49:27.458Z,101652.00
2019-02-05T13:52:08.568Z,101647.00
2019-02-05T13:54:56.015Z,101648.00
2019-02-05T13:57:24.236Z,101655.00
2019-02-05T14:00:16.866Z,101416.00
2019-02-05T14:02:57.608Z,101312.00
2019-02-05T14:05:45.858Z,101350.00
2019-02-05T14:08:26.818Z,101387.00
2019-02-05T14:10:55.059Z,101646.00
2019-02-05T14:13:22.945Z,101652.00
2019-02-05T14:15:52.365Z,101654.00
2019-02-05T14:18:22.662Z,101652.00
2019-02-05T14:20:50.162Z,101653.00
2019-02-05T14:23:18.107Z,101654.00
2019-02-05T14:26:00.904Z,101633.00
2019-02-05T14:28:48.559Z,101477.00
2019-02-05T14:31:31.374Z,101392.00
2019-02-05T14:34:11.555Z,101652.00
2019-02-05T14:36:58.952Z,101650.00
2019-02-05T14:39:27.080Z,101648.00
2019-02-05T14:42:14.739Z,101741.00
2019-02-05T14:44:55.108Z,101381.00
2019-02-05T14:47:23.264Z,101640.00
2019-02-05T14:50:04.313Z,101641.00
2019-02-05T14:52:45.836Z,101457.00
2019-02-05T14:55:33.394Z,101677.00
2019-02-05T14:58:15.099Z,101448.00
2019-02-05T15:01:02.693Z,101650.00
2019-02-05T15:03:32.809Z,101650.00
2019-02-05T15:06:20.207Z,101639.00
2019-02-05T15:09:00.777Z,101356.00
2019-02-05T15:11:41.078Z,101642.00
2019-02-05T15:14:22.894Z,101409.00
2019-02-05T15:17:10.360Z,101648.00
2019-02-05T15:19:50.503Z,101556.00
2019-02-05T15:22:18.408Z,101653.00
2019-02-05T15:25:00.794Z,101505.00
2019-02-05T15:27:48.344Z,101656.00
2019-02-05T15:30:30.547Z,101745.00
2019-02-05T15:33:32.357Z,101764.00
2019-02-05T15:36:31.461Z,101669.00
2019-02-05T15:39:26.218Z,101667.00
2019-02-05T15:41:54.527Z,101668.00
2019-02-05T15:44:22.561Z,101664.00
2019-02-05T15:46:50.515Z,101666.00
2019-02-05T15:49:18.451Z,101668.00
2019-02-05T15:51:46.456Z,101675.00
2019-02-05T15:54:14.468Z,101675.00
2019-02-05T15:56:43.184Z,101673.00
2019-02-05T15:59:11.186Z,101673.00
2019-02-05T16:01:39.181Z,101670.00
2019-02-05T16:04:07.462Z,101670.00
2019-02-05T16:06:35.396Z,101672.00
2019-02-05T16:09:07.250Z,101673.00
2019-02-05T16:11:36.412Z,101674.00
2019-02-05T16:14:04.895Z,101682.00
2019-02-05T16:16:32.900Z,101669.00
2019-02-05T16:19:00.847Z,101664.00
2019-02-05T16:21:28.905Z,101667.00
2019-02-05T16:23:58.269Z,101665.00
2019-02-05T16:26:26.548Z,101657.00
2019-02-05T16:28:54.623Z,101670.00
2019-02-05T16:31:23.108Z,101666.00
2019-02-05T16:33:51.042Z,101668.00
2019-02-05T16:36:19.101Z,101667.00
2019-02-05T16:38:47.084Z,101676.00
2019-02-05T16:41:15.152Z,101682.00
2019-02-05T16:43:43.260Z,101680.00
2019-02-05T16:46:11.426Z,101669.00
2019-02-05T16:48:39.576Z,101677.00
2019-02-05T16:51:07.533Z,101668.00
2019-02-05T16:53:35.602Z,101673.00
2019-02-05T16:56:03.818Z,101671.00
2019-02-05T16:58:31.886Z,101678.00
2019-02-05T17:00:59.960Z,101671.00
2019-02-05T17:03:28.115Z,101677.00
2019-02-05T17:05:56.089Z,101679.00
2019-02-05T17:08:24.039Z,101689.00
2019-02-05T17:10:52.071Z,101688.00
2019-02-05T17:13:20.125Z,101685.00
2019-02-05T17:15:48.367Z,101682.00
2019-02-05T17:18:23.289Z,101682.00
2019-02-05T17:20:46.173Z,101687.00
2019-02-05T17:23:14.207Z,101687.00
2019-02-05T17:25:43.298Z,101688.00
2019-02-05T17:28:11.201Z,101697.00
2019-02-05T17:30:39.553Z,101689.00
2019-02-05T17:33:07.706Z,101691.00
2019-02-05T17:35:35.914Z,101695.00
2019-02-05T17:38:06.739Z,101684.00
2019-02-05T17:40:34.728Z,101689.00
2019-02-05T17:43:02.909Z,101700.00
2019-02-05T17:45:34.380Z,101689.00
2019-02-05T17:48:13.615Z,101690.00
2019-02-05T17:50:43.897Z,101691.00
2019-02-05T17:53:15.175Z,101687.00
2019-02-05T17:55:44.920Z,101687.00
2019-02-05T17:58:12.972Z,101702.00
2019-02-05T18:01:01.470Z,101694.00
2019-02-05T18:03:29.502Z,101699.00
2019-02-05T18:06:00.724Z,101708.00
2019-02-05T18:08:28.904Z,101707.00
2019-02-05T18:10:57.160Z,101702.00
2019-02-05T18:13:25.500Z,101706.00
2019-02-05T18:15:53.668Z,101698.00
2019-02-05T18:18:22.109Z,101701.00
2019-02-05T18:20:50.146Z,101707.00
2019-02-05T18:23:18.565Z,101699.00
2019-02-05T18:25:46.919Z,101706.00
2019-02-05T18:28:15.122Z,101700.00
2019-02-05T18:30:43.162Z,101706.00
2019-02-05T18:33:11.616Z,101706.00
2019-02-05T18:35:39.774Z,101703.00
2019-02-05T18:38:11.365Z,101698.00
2019-02-05T18:40:39.472Z,101693.00
2019-02-05T18:43:07.776Z,101695.00
2019-02-05T18:45:35.715Z,101695.00
2019-02-05T18:48:05.026Z,101689.00
2019-02-05T18:50:33.167Z,101705.00
2019-02-05T18:53:01.327Z,101687.00
2019-02-05T18:55:30.633Z,101688.00
2019-02-05T18:58:08.839Z,101684.00
2019-02-05T19:00:33.338Z,101684.00
2019-02-05T19:03:01.426Z,101685.00
2019-02-05T19:05:30.021Z,101696.00
2019-02-05T19:07:58.750Z,101684.00
2019-02-05T19:10:27.691Z,101692.00
2019-02-05T19:12:56.498Z,101694.00
2019-02-05T19:15:27.586Z,101699.00
2019-02-05T19:17:55.656Z,101690.00
2019-02-05T19:20:27.985Z,101689.00
2019-02-05T19:22:56.092Z,101691.00
2019-02-05T19:25:45.651Z,101692.00
2019-02-05T19:28:39.273Z,101687.00
2019-02-05T19:31:38.811Z,101684.00
2019-02-05T19:34:08.408Z,101690.00
2019-02-05T19:36:37.394Z,101694.00
2019-02-05T19:39:07.330Z,101693.00
2019-02-05T19:41:35.818Z,101693.00
2019-02-05T19:44:04.373Z,101696.00
2019-02-05T19:46:54.579Z,101705.00
2019-02-05T19:49:27.405Z,101703.00
2019-02-05T19:51:55.784Z,101689.00
2019-02-05T19:54:24.467Z,101688.00
2019-02-05T19:56:52.749Z,101685.00
2019-02-05T19:59:21.556Z,101679.00
2019-02-05T20:01:50.309Z,101682.00
2019-02-05T20:04:18.445Z,101670.00
2019-02-05T20:06:46.843Z,101675.00
2019-02-05T20:09:15.367Z,101682.00
2019-02-05T20:11:43.599Z,101671.00
2019-02-05T20:14:11.689Z,101669.00
2019-02-05T20:16:40.071Z,101668.00
2019-02-05T20:19:08.783Z,101668.00
2019-02-05T20:21:36.878Z,101668.00
2019-02-05T20:24:05.143Z,101658.00
2019-02-05T20:26:33.225Z,101664.00
2019-02-05T20:29:01.790Z,101672.00
2019-02-05T20:31:30.191Z,101669.00
2019-02-05T20:33:58.502Z,101672.00
2019-02-05T20:36:26.660Z,101674.00
2019-02-05T20:38:54.769Z,101682.00
2019-02-05T20:41:23.119Z,101676.00
2019-02-05T20:43:51.300Z,101674.00
2019-02-05T20:46:19.402Z,101674.00
2019-02-05T20:48:47.631Z,101682.00
2019-02-05T20:51:15.812Z,101686.00
2019-02-05T20:53:43.965Z,101694.00
2019-02-05T20:56:12.148Z,101690.00
2019-02-05T20:58:40.650Z,101682.00
2019-02-05T21:01:08.851Z,101692.00
2019-02-05T21:03:37.096Z,101685.00
2019-02-05T21:06:06.800Z,101686.00
2019-02-05T21:08:34.916Z,101682.00
2019-02-05T21:11:03.082Z,101685.00
2019-02-05T21:13:31.153Z,101687.00
2019-02-05T21:15:59.472Z,101677.00
2019-02-05T21:18:27.606Z,101681.00
2019-02-05T21:20:55.976Z,101683.00
2019-02-05T21:23:24.141Z,101679.00
2019-02-05T21:25:52.497Z,101682.00
2019-02-05T21:28:20.601Z,101678.00
2019-02-05T21:30:48.595Z,101677.00
2019-02-05T21:33:18.891Z,101682.00
2019-02-05T21:35:46.618Z,101687.00
2019-02-05T21:38:15.110Z,101674.00
2019-02-05T21:40:43.381Z,101677.00
2019-02-05T21:43:24.257Z,101731.00
2019-02-05T21:45:52.520Z,101674.00
2019-02-05T21:48:40.519Z,101470.00
2019-02-05T21:51:22.641Z,101674.00
2019-02-05T21:53:53.711Z,101673.00
2019-02-05T21:56:34.808Z,101733.00
2019-02-05T21:59:24.078Z,101720.00
2019-02-05T22:02:07.428Z,101485.00
2019-02-05T22:04:42.480Z,101666.00
2019-02-05T22:10:52.516Z,101671.00
2019-02-05T22:13:34.523Z,101501.00
2019-02-05T22:19:17.250Z,101518.00
2019-02-05T22:21:45.646Z,101655.00
2019-02-05T22:37:36.251Z,101641.00
2019-02-05T22:40:18.521Z,101649.00
2019-02-05T22:43:06.281Z,101643.00
2019-02-05T22:45:51.485Z,101699.00
2019-02-05T22:48:40.504Z,101658.00
2019-02-05T22:51:22.219Z,101645.00
2019-02-05T22:54:12.260Z,101526.00
2019-02-05T22:56:51.517Z,101427.00
2019-02-05T22:59:39.526Z,101512.00
2019-02-05T23:05:52.803Z,101653.00
2019-02-05T23:08:33.272Z,101652.00
2019-02-05T23:11:50.463Z,101659.00
2019-02-05T23:14:19.360Z,101654.00
2019-02-05T23:17:04.749Z,101655.00
2019-02-05T23:19:53.438Z,101690.00
2019-02-05T23:22:34.694Z,101473.00
2019-02-05T23:25:15.483Z,101659.00
2019-02-05T23:27:58.906Z,101428.00
2019-02-05T23:30:39.191Z,101659.00
2019-02-05T23:33:26.613Z,101650.00
2019-02-05T23:36:08.196Z,101421.00
2019-02-05T23:39:02.454Z,101490.00
2019-02-05T23:41:40.361Z,101657.00
2019-02-05T23:44:27.860Z,101653.00
2019-02-05T23:47:08.690Z,101324.00
2019-02-05T23:49:49.504Z,101449.00
2019-02-05T23:52:36.930Z,101660.00
2019-02-05T23:55:17.446Z,101445.00
2019-02-05T23:58:04.903Z,101440.00
